Time;durP1;ratioP1;P1;durP2;ratioP2;P2;SDS_P1;SDS_P2;PMS_P1;PMS_P2;Temp;Humidity;BMP_temperature;BMP_pressure;BME280_temperature;BME280_humidity;BME280_pressure;Samples;Min_cycle;Max_cycle;Signal;HPM_P1;HPM_P2
2023/06/01 00:01:42;;;;;;;6.70;4.75;;;;;;;;;;4817002;29;20049;-75
2023/06/01 00:04:14;;;;;;;8.68;5.00;;;;;;;;;;4816836;29;20050;-74
2023/06/01 00:06:45;;;;;;;12.00;4.30;;;;;;;;;;4817063;29;20593;-74
2023/06/01 00:09:22;;;;;;;7.72;4.78;;;;;;;;;;4816876;29;20060;-74
2023/06/01 00:11:54;;;;;;;9.30;4.60;;;;;;;;;;4816622;29;20046;-75
2023/06/01 00:14:25;;;;;;;10.02;4.95;;;;;;;;;;4830936;29;20054;-75
2023/06/01 00:16:56;;;;;;;10.93;5.88;;;;;;;;;;4817302;29;20073;-74
2023/06/01 00:19:27;;;;;;;7.88;5.13;;;;;;;;;;4816848;29;20058;-75
2023/06/01 00:21:58;;;;;;;10.27;5.10;;;;;;;;;;4830289;29;20062;-74
2023/06/01 00:24:30;;;;;;;11.50;4.63;;;;;;;;;;4816943;29;20061;-74
2023/06/01 00:27:02;;;;;;;15.50;4.85;;;;;;;;;;4816847;29;20057;-74
2023/06/01 00:29:33;;;;;;;8.55;5.72;;;;;;;;;;4830265;29;20081;-75
2023/06/01 00:32:06;;;;;;;11.57;5.22;;;;;;;;;;4830923;29;20073;-75
2023/06/01 00:34:37;;;;;;;9.02;5.43;;;;;;;;;;4816582;29;20522;-74
2023/06/01 00:37:07;;;;;;;6.78;4.53;;;;;;;;;;4830229;29;20054;-75
2023/06/01 00:39:42;;;;;;;7.43;5.40;;;;;;;;;;4830408;29;20054;-74
2023/06/01 00:42:15;;;;;;;8.65;4.88;;;;;;;;;;4816618;29;20066;-74
2023/06/01 00:44:47;;;;;;;10.48;5.25;;;;;;;;;;4816814;29;20053;-74
2023/06/01 00:47:18;;;;;;;8.52;5.72;;;;;;;;;;4831319;29;20069;-75
2023/06/01 00:49:49;;;;;;;8.85;5.72;;;;;;;;;;4816531;29;20051;-75
2023/06/01 00:52:22;;;;;;;12.75;5.90;;;;;;;;;;4816808;29;20062;-75
2023/06/01 00:54:54;;;;;;;9.93;6.35;;;;;;;;;;4816609;29;20055;-74
2023/06/01 00:57:26;;;;;;;9.23;5.78;;;;;;;;;;4816121;29;20410;-75
2023/06/01 00:59:57;;;;;;;9.95;7.28;;;;;;;;;;4814224;29;20617;-75
2023/06/01 01:02:31;;;;;;;12.63;7.38;;;;;;;;;;4829894;29;20058;-73
2023/06/01 01:05:02;;;;;;;14.05;7.50;;;;;;;;;;4815234;29;20065;-79
2023/06/01 01:07:59;;;;;;;11.63;8.18;;;;;;;;;;4829415;29;20089;-75
2023/06/01 01:10:46;;;;;;;14.27;7.43;;;;;;;;;;4811334;29;20463;-75
2023/06/01 01:13:27;;;;;;;10.27;7.15;;;;;;;;;;4816293;29;20065;-76
2023/06/01 01:16:15;;;;;;;12.25;6.88;;;;;;;;;;4815882;29;20046;-75
2023/06/01 01:18:54;;;;;;;8.57;6.60;;;;;;;;;;4829558;29;20058;-74
2023/06/01 01:21:32;;;;;;;8.10;5.55;;;;;;;;;;4829319;29;20058;-74
2023/06/01 01:24:45;;;;;;;6.28;4.95;;;;;;;;;;4829133;29;20054;-75
2023/06/01 01:27:39;;;;;;;9.50;5.15;;;;;;;;;;4829269;29;20974;-74
2023/06/01 01:30:11;;;;;;;9.43;5.85;;;;;;;;;;4829859;29;20069;-74
2023/06/01 01:32:42;;;;;;;7.28;5.00;;;;;;;;;;4814104;29;20062;-77
2023/06/01 01:35:13;;;;;;;7.43;5.68;;;;;;;;;;4815939;29;20066;-74
2023/06/01 01:37:54;;;;;;;8.45;5.53;;;;;;;;;;4816140;29;20538;-75
2023/06/01 01:40:27;;;;;;;7.22;5.45;;;;;;;;;;4815611;29;20050;-75
2023/06/01 01:42:58;;;;;;;9.32;5.95;;;;;;;;;;4829730;29;20506;-73
2023/06/01 01:45:31;;;;;;;7.53;5.18;;;;;;;;;;4829016;29;20050;-75
2023/06/01 01:48:17;;;;;;;9.70;5.22;;;;;;;;;;4816361;29;20073;-75
2023/06/01 01:50:56;;;;;;;8.60;5.20;;;;;;;;;;4814435;29;20062;-74
2023/06/01 01:53:27;;;;;;;8.75;5.95;;;;;;;;;;4814893;29;20383;-75
2023/06/01 01:56:00;;;;;;;10.43;7.22;;;;;;;;;;4816198;29;20058;-74
2023/06/01 01:58:33;;;;;;;12.95;8.77;;;;;;;;;;4829577;29;20416;-76
2023/06/01 02:01:04;;;;;;;14.73;8.10;;;;;;;;;;4817158;29;20066;-74
2023/06/01 02:03:35;;;;;;;11.23;7.07;;;;;;;;;;4816349;29;20054;-74
2023/06/01 02:06:06;;;;;;;13.82;6.68;;;;;;;;;;4818350;29;20046;-74
2023/06/01 02:08:38;;;;;;;12.00;7.80;;;;;;;;;;4832230;29;20058;-75
2023/06/01 02:11:09;;;;;;;18.40;11.73;;;;;;;;;;4819137;29;20427;-75
2023/06/01 02:13:40;;;;;;;17.90;9.45;;;;;;;;;;4832428;29;20430;-75
2023/06/01 02:16:13;;;;;;;12.95;6.35;;;;;;;;;;4818085;29;20054;-75
2023/06/01 02:18:45;;;;;;;10.80;6.07;;;;;;;;;;4831829;29;20061;-76
2023/06/01 02:21:16;;;;;;;9.98;6.57;;;;;;;;;;4818990;29;20066;-74
2023/06/01 02:23:46;;;;;;;8.07;5.68;;;;;;;;;;4831863;29;20073;-75
2023/06/01 02:26:16;;;;;;;7.72;5.70;;;;;;;;;;4818636;29;20056;-74
2023/06/01 02:28:48;;;;;;;10.50;5.28;;;;;;;;;;4818536;29;20061;-74
2023/06/01 02:31:20;;;;;;;6.85;4.18;;;;;;;;;;4818306;29;20399;-74
2023/06/01 02:33:51;;;;;;;6.70;5.10;;;;;;;;;;4831593;29;20434;-74
2023/06/01 02:36:21;;;;;;;8.88;5.07;;;;;;;;;;4832423;29;20400;-74
2023/06/01 02:38:53;;;;;;;10.85;7.10;;;;;;;;;;4817008;29;20081;-74
2023/06/01 02:41:25;;;;;;;11.75;5.47;;;;;;;;;;4832153;29;20869;-73
2023/06/01 02:43:56;;;;;;;8.23;5.13;;;;;;;;;;4815986;29;20529;-74
2023/06/01 02:46:27;;;;;;;9.70;6.03;;;;;;;;;;4830071;29;20102;-73
2023/06/01 02:48:58;;;;;;;6.40;4.57;;;;;;;;;;4830848;29;20084;-73
2023/06/01 02:51:31;;;;;;;8.23;4.88;;;;;;;;;;4816975;29;20057;-73
2023/06/01 02:54:14;;;;;;;8.13;5.32;;;;;;;;;;4814618;29;20065;-74
2023/06/01 02:56:44;;;;;;;10.85;4.68;;;;;;;;;;4830238;29;20054;-74
2023/06/01 02:59:23;;;;;;;9.60;5.28;;;;;;;;;;4832065;29;20589;-74
2023/06/01 03:01:59;;;;;;;8.20;4.70;;;;;;;;;;4816291;29;20065;-75
2023/06/01 03:04:32;;;;;;;6.78;4.93;;;;;;;;;;4831100;29;20050;-77
2023/06/01 03:07:03;;;;;;;11.10;5.47;;;;;;;;;;4831575;29;20069;-73
2023/06/01 03:09:35;;;;;;;10.30;5.72;;;;;;;;;;4822037;29;20062;-73
2023/06/01 03:12:11;;;;;;;10.70;6.07;;;;;;;;;;4820494;29;20514;-73
2023/06/01 03:14:43;;;;;;;9.27;5.18;;;;;;;;;;4817909;29;20050;-74
2023/06/01 03:17:14;;;;;;;7.82;5.63;;;;;;;;;;4831773;29;20062;-74
2023/06/01 03:19:44;;;;;;;12.60;5.82;;;;;;;;;;4816635;29;20058;-73
2023/06/01 03:22:20;;;;;;;;;;;;;;;;;;4832521;29;20062;-74
2023/06/01 03:24:54;;;;;;;7.55;3.97;;;;;;;;;;4831561;29;19929;-73
2023/06/01 03:27:29;;;;;;;8.32;4.78;;;;;;;;;;4818468;29;20054;-73
2023/06/01 03:30:01;;;;;;;7.32;5.00;;;;;;;;;;4816387;29;20066;-72
2023/06/01 03:32:31;;;;;;;9.07;5.53;;;;;;;;;;4816192;29;20439;-73
2023/06/01 03:35:01;;;;;;;6.53;4.18;;;;;;;;;;4831136;29;20050;-74
2023/06/01 03:37:32;;;;;;;7.13;5.15;;;;;;;;;;4817647;29;20057;-75
2023/06/01 03:40:10;;;;;;;9.10;5.63;;;;;;;;;;4816169;29;20062;-75
2023/06/01 03:42:48;;;;;;;9.35;5.85;;;;;;;;;;4817135;29;20613;-73
2023/06/01 03:45:18;;;;;;;7.88;4.88;;;;;;;;;;4831141;29;20419;-73
2023/06/01 03:47:47;;;;;;;;;;;;;;;;;;4831932;29;20057;-74
2023/06/01 03:50:17;;;;;;;8.27;5.25;;;;;;;;;;4831137;29;19928;-75
2023/06/01 03:52:49;;;;;;;10.93;6.20;;;;;;;;;;4830318;29;20439;-73
2023/06/01 03:55:22;;;;;;;9.60;5.15;;;;;;;;;;4817201;29;20062;-74
2023/06/01 03:58:08;;;;;;;9.82;6.32;;;;;;;;;;4815618;29;20069;-74
2023/06/01 04:00:39;;;;;;;8.65;5.38;;;;;;;;;;4831230;29;20055;-74
2023/06/01 04:03:10;;;;;;;8.75;5.30;;;;;;;;;;4815846;29;20458;-73
2023/06/01 04:05:41;;;;;;;11.55;6.38;;;;;;;;;;4816054;29;20057;-73
2023/06/01 04:08:11;;;;;;;10.05;5.80;;;;;;;;;;4815734;29;20434;-74
2023/06/01 04:10:40;;;;;;;;;;;;;;;;;;4831023;29;20058;-73
2023/06/01 04:13:11;;;;;;;10.32;4.50;;;;;;;;;;4830865;29;20339;-74
2023/06/01 04:15:41;;;;;;;11.23;5.28;;;;;;;;;;4830364;29;20438;-74
2023/06/01 04:18:13;;;;;;;11.13;5.82;;;;;;;;;;4815779;29;20507;-74
2023/06/01 04:21:02;;;;;;;8.57;5.55;;;;;;;;;;4830961;29;20054;-73
2023/06/01 04:23:33;;;;;;;10.40;5.80;;;;;;;;;;4830636;29;20058;-74
2023/06/01 04:26:06;;;;;;;8.73;5.15;;;;;;;;;;4830263;29;20426;-74
2023/06/01 04:28:43;;;;;;;8.48;5.18;;;;;;;;;;4830664;29;20506;-73
2023/06/01 04:31:16;;;;;;;8.40;5.50;;;;;;;;;;4814958;29;20065;-74
2023/06/01 04:33:52;;;;;;;11.43;5.90;;;;;;;;;;4815438;29;20058;-74
2023/06/01 04:36:27;;;;;;;;;;;;;;;;;;4815592;29;20514;-74
2023/06/01 04:39:02;;;;;;;8.75;5.97;;;;;;;;;;4830949;29;19925;-73
2023/06/01 04:41:35;;;;;;;9.40;6.13;;;;;;;;;;4830047;29;20050;-73
2023/06/01 04:44:06;;;;;;;9.55;5.80;;;;;;;;;;4815223;29;20515;-73
2023/06/01 04:46:39;;;;;;;9.52;5.88;;;;;;;;;;4830371;29;20066;-74
2023/06/01 04:49:15;;;;;;;15.45;6.13;;;;;;;;;;4830519;29;20105;-73
2023/06/01 04:51:45;;;;;;;13.70;7.18;;;;;;;;;;4815128;29;20062;-74
2023/06/01 04:54:18;;;;;;;10.32;6.57;;;;;;;;;;4816715;29;20051;-74
2023/06/01 04:56:51;;;;;;;;;;;;;;;;;;4830930;29;20981;-73
2023/06/01 04:59:22;;;;;;;7.35;4.70;;;;;;;;;;4816399;29;20326;-73
2023/06/01 05:01:52;;;;;;;8.23;5.18;;;;;;;;;;4816791;29;20054;-74
2023/06/01 05:04:23;;;;;;;8.90;5.65;;;;;;;;;;4815398;29;20058;-74
2023/06/01 05:06:54;;;;;;;10.90;6.70;;;;;;;;;;4816855;29;20042;-74
2023/06/01 05:09:25;;;;;;;8.65;5.72;;;;;;;;;;4829942;29;20541;-74
2023/06/01 05:11:55;;;;;;;10.00;6.28;;;;;;;;;;4830090;29;20061;-73
2023/06/01 05:14:25;;;;;;;9.80;5.90;;;;;;;;;;4814460;29;20058;-74
2023/06/01 05:16:56;;;;;;;14.73;6.63;;;;;;;;;;4814669;29;20074;-74
2023/06/01 05:19:27;;;;;;;7.55;5.30;;;;;;;;;;4830003;29;20077;-73
2023/06/01 05:21:58;;;;;;;24.20;5.15;;;;;;;;;;4814824;29;20069;-74
2023/06/01 05:24:29;;;;;;;10.25;5.25;;;;;;;;;;4814975;29;20053;-73
2023/06/01 05:26:59;;;;;;;11.07;6.63;;;;;;;;;;4830428;29;20528;-73
2023/06/01 05:29:32;;;;;;;17.67;7.45;;;;;;;;;;4816135;29;20046;-74
2023/06/01 05:32:03;;;;;;;9.65;6.25;;;;;;;;;;4814597;29;20065;-73
2023/06/01 05:34:33;;;;;;;9.95;5.95;;;;;;;;;;4831515;29;20104;-74
2023/06/01 05:37:03;;;;;;;8.65;6.15;;;;;;;;;;4819729;29;20062;-74
2023/06/01 05:39:34;;;;;;;9.15;6.38;;;;;;;;;;4833337;29;20522;-74
2023/06/01 05:42:06;;;;;;;8.98;5.53;;;;;;;;;;4818008;29;20063;-74
2023/06/01 05:44:38;;;;;;;14.23;7.15;;;;;;;;;;4833286;29;20066;-74
2023/06/01 05:47:09;;;;;;;9.95;5.80;;;;;;;;;;4832821;29;20422;-73
2023/06/01 05:49:39;;;;;;;12.30;6.13;;;;;;;;;;4832996;29;20066;-74
2023/06/01 05:52:13;;;;;;;9.40;5.78;;;;;;;;;;4833106;29;20062;-74
2023/06/01 05:54:44;;;;;;;10.60;6.80;;;;;;;;;;4832751;29;20058;-73
2023/06/01 05:57:14;;;;;;;8.48;5.78;;;;;;;;;;4818041;29;20079;-74
2023/06/01 05:59:46;;;;;;;11.25;6.80;;;;;;;;;;4833110;29;20075;-74
2023/06/01 06:02:20;;;;;;;19.85;7.53;;;;;;;;;;4819515;29;20054;-74
2023/06/01 06:04:50;;;;;;;43.33;7.30;;;;;;;;;;4819134;29;20054;-74
2023/06/01 06:07:20;;;;;;;;;;;;;;;;;;4819536;29;20414;-74
2023/06/01 06:09:51;;;;;;;34.92;6.80;;;;;;;;;;4818995;29;20392;-74
2023/06/01 06:12:21;;;;;;;38.45;8.25;;;;;;;;;;4832674;29;20055;-74
2023/06/01 06:14:51;;;;;;;63.90;7.93;;;;;;;;;;4819114;29;20061;-74
2023/06/01 06:17:22;;;;;;;24.02;7.45;;;;;;;;;;4819364;29;20073;-74
2023/06/01 06:19:53;;;;;;;28.42;6.90;;;;;;;;;;4818789;29;20062;-74
2023/06/01 06:22:23;;;;;;;55.20;7.50;;;;;;;;;;4818798;29;20062;-73
2023/06/01 06:24:54;;;;;;;56.22;8.52;;;;;;;;;;4818255;29;20053;-74
2023/06/01 06:27:23;;;;;;;;;;;;;;;;;;4832248;29;20062;-73
2023/06/01 06:29:54;;;;;;;24.13;5.78;;;;;;;;;;4818417;29;20308;-73
2023/06/01 06:32:25;;;;;;;34.85;6.28;;;;;;;;;;4818574;29;20046;-74
2023/06/01 06:34:55;;;;;;;69.72;7.15;;;;;;;;;;4818734;29;20906;-74
2023/06/01 06:37:25;;;;;;;25.55;6.63;;;;;;;;;;4818804;29;20046;-74
2023/06/01 06:39:55;;;;;;;15.55;6.40;;;;;;;;;;4818247;29;20495;-74
2023/06/01 06:42:25;;;;;;;22.67;6.20;;;;;;;;;;4818581;29;20043;-74
2023/06/01 06:44:57;;;;;;;19.55;7.15;;;;;;;;;;4817505;29;20054;-73
2023/06/01 06:47:28;;;;;;;19.95;6.45;;;;;;;;;;4817963;29;20538;-73
2023/06/01 06:49:58;;;;;;;29.73;7.40;;;;;;;;;;4818135;29;20511;-74
2023/06/01 06:52:28;;;;;;;25.92;7.03;;;;;;;;;;4832319;29;20075;-74
2023/06/01 06:55:00;;;;;;;41.28;9.95;;;;;;;;;;4818300;29;20069;-74
2023/06/01 06:57:30;;;;;;;22.77;7.40;;;;;;;;;;4818498;29;20062;-73
2023/06/01 07:00:03;;;;;;;44.05;7.80;;;;;;;;;;4817854;29;20061;-73
2023/06/01 07:02:34;;;;;;;37.85;9.73;;;;;;;;;;4817865;29;20062;-74
2023/06/01 07:05:05;;;;;;;28.23;7.07;;;;;;;;;;4817913;29;20053;-73
2023/06/01 07:07:37;;;;;;;17.33;6.57;;;;;;;;;;4818169;29;20059;-74
2023/06/01 07:10:09;;;;;;;17.88;6.43;;;;;;;;;;4818345;29;20529;-73
2023/06/01 07:12:39;;;;;;;10.65;6.15;;;;;;;;;;4817647;29;20058;-74
2023/06/01 07:15:10;;;;;;;10.45;4.75;;;;;;;;;;4818026;29;20055;-73
2023/06/01 07:17:41;;;;;;;8.05;5.35;;;;;;;;;;4817790;29;20058;-73
2023/06/01 07:20:11;;;;;;;9.43;4.88;;;;;;;;;;4817927;29;20065;-73
2023/06/01 07:22:42;;;;;;;7.47;4.95;;;;;;;;;;4817569;29;20533;-74
2023/06/01 07:25:15;;;;;;;6.45;4.25;;;;;;;;;;4818084;29;20054;-74
2023/06/01 07:27:48;;;;;;;10.60;5.50;;;;;;;;;;4817944;29;20059;-73
2023/06/01 07:30:18;;;;;;;9.07;5.30;;;;;;;;;;4817758;29;20062;-74
2023/06/01 07:32:50;;;;;;;7.43;5.00;;;;;;;;;;4817782;29;20081;-74
2023/06/01 07:35:20;;;;;;;5.43;4.00;;;;;;;;;;4817373;29;20051;-75
2023/06/01 07:37:50;;;;;;;6.95;3.90;;;;;;;;;;4817172;29;20054;-74
2023/06/01 07:40:22;;;;;;;8.98;4.18;;;;;;;;;;4818042;29;20056;-75
2023/06/01 07:42:52;;;;;;;8.00;4.93;;;;;;;;;;4817506;29;20053;-74
2023/06/01 07:45:23;;;;;;;9.00;5.28;;;;;;;;;;4817746;29;20065;-74
2023/06/01 07:47:54;;;;;;;6.90;4.90;;;;;;;;;;4817322;29;20415;-74
2023/06/01 07:50:28;;;;;;;6.03;3.85;;;;;;;;;;4817532;29;20059;-74
2023/06/01 07:52:58;;;;;;;6.82;4.53;;;;;;;;;;4817435;29;20511;-73
2023/06/01 07:55:29;;;;;;;7.25;4.45;;;;;;;;;;4817378;29;20527;-73
2023/06/01 07:58:00;;;;;;;7.28;4.60;;;;;;;;;;4816739;29;20061;-74
2023/06/01 08:00:30;;;;;;;6.82;4.40;;;;;;;;;;4830690;29;20058;-73
2023/06/01 08:03:05;;;;;;;7.25;4.78;;;;;;;;;;4817384;29;20074;-75
2023/06/01 08:05:38;;;;;;;6.05;4.00;;;;;;;;;;4817330;29;20439;-74
2023/06/01 08:08:08;;;;;;;7.75;4.47;;;;;;;;;;4817038;29;20507;-74
2023/06/01 08:10:39;;;;;;;5.88;4.57;;;;;;;;;;4816993;29;20058;-74
2023/06/01 08:13:10;;;;;;;6.60;4.53;;;;;;;;;;4816631;29;20061;-73
2023/06/01 08:15:42;;;;;;;7.15;5.10;;;;;;;;;;4817076;29;20043;-73
2023/06/01 08:18:12;;;;;;;6.60;4.65;;;;;;;;;;4817555;29;20533;-74
2023/06/01 08:20:44;;;;;;;6.50;4.82;;;;;;;;;;4816824;29;20057;-73
2023/06/01 08:23:16;;;;;;;7.18;5.00;;;;;;;;;;4830213;29;20050;-75
2023/06/01 08:25:46;;;;;;;7.70;4.30;;;;;;;;;;4816628;29;20065;-74
2023/06/01 08:28:16;;;;;;;;;;;;;;;;;;4817549;29;20059;-74
2023/06/01 08:30:47;;;;;;;6.07;4.40;;;;;;;;;;4816853;29;19935;-74
2023/06/01 08:33:18;;;;;;;6.43;4.80;;;;;;;;;;4817053;29;20050;-74
2023/06/01 08:35:49;;;;;;;12.73;4.53;;;;;;;;;;4830830;29;20054;-74
2023/06/01 08:38:18;;;;;;;;;;;;;;;;;;4816849;29;20058;-74
2023/06/01 08:40:50;;;;;;;6.75;4.05;;;;;;;;;;4816817;29;20405;-74
2023/06/01 08:43:20;;;;;;;7.57;5.13;;;;;;;;;;4816852;29;20057;-74
2023/06/01 08:45:51;;;;;;;7.28;3.85;;;;;;;;;;4816983;29;20483;-73
2023/06/01 08:48:22;;;;;;;6.57;4.35;;;;;;;;;;4816651;29;20058;-74
2023/06/01 08:50:57;;;;;;;7.03;5.03;;;;;;;;;;4817461;29;20514;-74
2023/06/01 08:53:29;;;;;;;7.30;4.03;;;;;;;;;;4829745;29;20050;-73
2023/06/01 08:56:03;;;;;;;4.07;3.15;;;;;;;;;;4830353;29;20062;-74
2023/06/01 08:58:36;;;;;;;6.82;4.63;;;;;;;;;;4816233;29;20050;-74
2023/06/01 09:01:06;;;;;;;5.97;4.28;;;;;;;;;;4816279;29;20055;-74
2023/06/01 09:03:36;;;;;;;10.93;6.63;;;;;;;;;;4830572;29;20065;-74
2023/06/01 09:06:06;;;;;;;8.77;7.28;;;;;;;;;;4816594;29;20065;-73
2023/06/01 09:08:36;;;;;;;;;;;;;;;;;;4817929;29;20057;-74
2023/06/01 09:11:06;;;;;;;8.85;6.38;;;;;;;;;;4819728;29;20308;-73
2023/06/01 09:13:37;;;;;;;;;;;;;;;;;;4820203;29;20055;-76
2023/06/01 09:16:08;;;;;;;9.25;5.88;;;;;;;;;;4819753;29;19936;-75
2023/06/01 09:18:51;;;;;;;9.95;6.90;;;;;;;;;;4819928;29;20062;-75
2023/06/01 09:21:22;;;;;;;8.60;6.15;;;;;;;;;;4820264;29;20057;-75
2023/06/01 09:23:51;;;;;;;;;;;;;;;;;;4820166;29;20403;-75
2023/06/01 09:26:27;;;;;;;7.63;5.63;;;;;;;;;;4819985;29;19924;-75
2023/06/01 09:28:59;;;;;;;8.40;5.22;;;;;;;;;;4819229;29;20392;-75
2023/06/01 09:31:42;;;;;;;9.90;5.10;;;;;;;;;;4819389;29;20054;-75
2023/06/01 09:34:20;;;;;;;7.88;5.85;;;;;;;;;;4819821;29;20498;-74
2023/06/01 09:36:54;;;;;;;8.50;6.25;;;;;;;;;;4819966;29;20521;-75
2023/06/01 09:39:25;;;;;;;9.00;5.78;;;;;;;;;;4820202;29;20414;-76
2023/06/01 09:41:58;;;;;;;10.13;6.57;;;;;;;;;;4819271;29;20511;-76
2023/06/01 09:44:30;;;;;;;10.00;5.40;;;;;;;;;;4819824;29;20058;-75
2023/06/01 09:47:02;;;;;;;27.70;6.43;;;;;;;;;;4818764;29;20046;-75
2023/06/01 09:49:39;;;;;;;22.13;5.97;;;;;;;;;;4819169;29;20049;-76
2023/06/01 09:52:10;;;;;;;35.17;6.85;;;;;;;;;;4819410;29;20713;-75
2023/06/01 09:54:50;;;;;;;16.25;5.72;;;;;;;;;;4819515;29;20051;-75
2023/06/01 09:57:23;;;;;;;16.00;5.90;;;;;;;;;;4819541;29;20655;-76
2023/06/01 09:59:54;;;;;;;24.25;6.35;;;;;;;;;;4833334;29;20059;-74
2023/06/01 10:02:25;;;;;;;23.65;6.10;;;;;;;;;;4819077;29;20050;-75
2023/06/01 10:04:59;;;;;;;12.98;5.15;;;;;;;;;;4833191;29;20533;-76
2023/06/01 10:07:33;;;;;;;9.15;5.25;;;;;;;;;;4818856;29;20524;-75
2023/06/01 10:10:04;;;;;;;14.82;5.60;;;;;;;;;;4819161;29;20057;-76
2023/06/01 10:12:36;;;;;;;52.72;5.78;;;;;;;;;;4819506;29;20463;-75
2023/06/01 10:15:07;;;;;;;21.08;5.30;;;;;;;;;;4818969;29;20054;-76
2023/06/01 10:17:55;;;;;;;23.98;5.25;;;;;;;;;;4819023;29;20050;-75
2023/06/01 10:20:26;;;;;;;17.05;5.50;;;;;;;;;;4818658;29;20054;-75
2023/06/01 10:23:00;;;;;;;21.80;4.70;;;;;;;;;;4821763;29;20057;-75
2023/06/01 10:25:36;;;;;;;10.15;5.63;;;;;;;;;;4851184;29;20057;-77
2023/06/01 10:28:07;;;;;;;18.00;7.00;;;;;;;;;;4837387;29;20061;-75
2023/06/01 10:30:38;;;;;;;26.20;7.75;;;;;;;;;;4836920;29;20058;-76
2023/06/01 10:33:09;;;;;;;12.20;6.50;;;;;;;;;;4836792;29;20065;-76
2023/06/01 10:35:43;;;;;;;11.32;5.90;;;;;;;;;;4836800;29;20054;-77
2023/06/01 10:38:14;;;;;;;14.18;6.85;;;;;;;;;;4837069;29;20050;-73
2023/06/01 10:40:46;;;;;;;9.35;5.00;;;;;;;;;;4836580;29;20054;-75
2023/06/01 10:43:38;;;;;;;13.98;5.85;;;;;;;;;;4836596;29;20387;-76
2023/06/01 10:46:37;;;;;;;11.95;7.10;;;;;;;;;;4836132;29;20049;-76
2023/06/01 10:49:10;;;;;;;12.90;5.85;;;;;;;;;;4835914;29;20132;-78
2023/06/01 10:51:40;;;;;;;12.07;7.18;;;;;;;;;;4836589;29;20050;-76
2023/06/01 10:54:28;;;;;;;12.93;6.35;;;;;;;;;;4836569;29;20546;-76
2023/06/01 10:57:22;;;;;;;10.45;5.60;;;;;;;;;;4836783;29;20406;-76
2023/06/01 11:00:12;;;;;;;9.07;6.10;;;;;;;;;;4836297;29;20058;-75
2023/06/01 11:02:52;;;;;;;10.25;4.82;;;;;;;;;;4836840;29;20058;-76
2023/06/01 11:05:47;;;;;;;7.97;4.57;;;;;;;;;;4836664;29;20054;-76
2023/06/01 11:08:22;;;;;;;10.48;4.63;;;;;;;;;;4836592;29;20425;-76
2023/06/01 11:10:53;;;;;;;10.95;3.72;;;;;;;;;;4836090;29;20554;-75
2023/06/01 11:13:27;;;;;;;14.82;5.38;;;;;;;;;;4836348;29;20058;-77
2023/06/01 11:16:10;;;;;;;11.88;6.70;;;;;;;;;;4836423;29;20058;-75
2023/06/01 11:18:42;;;;;;;6.22;4.10;;;;;;;;;;4850219;29;20992;-74
2023/06/01 11:21:18;;;;;;;10.95;3.88;;;;;;;;;;4836861;29;20049;-79
2023/06/01 11:23:49;;;;;;;8.30;5.82;;;;;;;;;;4836099;29;20050;-76
2023/06/01 11:26:25;;;;;;;6.95;4.40;;;;;;;;;;4836021;29;20053;-74
2023/06/01 11:29:17;;;;;;;5.03;3.50;;;;;;;;;;4835669;29;20042;-75
2023/06/01 11:31:58;;;;;;;6.55;3.92;;;;;;;;;;4835230;29;20058;-74
2023/06/01 11:34:37;;;;;;;9.82;7.30;;;;;;;;;;4835836;29;20064;-74
2023/06/01 11:37:15;;;;;;;5.68;3.90;;;;;;;;;;4836228;29;20058;-74
2023/06/01 11:39:47;;;;;;;18.25;9.98;;;;;;;;;;4836201;29;20057;-75
2023/06/01 11:42:21;;;;;;;3.95;3.00;;;;;;;;;;4849560;29;20061;-75
2023/06/01 11:44:59;;;;;;;8.07;3.80;;;;;;;;;;4835643;29;20057;-75
2023/06/01 11:47:30;;;;;;;5.63;3.67;;;;;;;;;;4835655;29;20054;-74
2023/06/01 11:50:01;;;;;;;6.80;3.25;;;;;;;;;;4836013;29;20061;-75
2023/06/01 11:52:32;;;;;;;8.82;2.90;;;;;;;;;;4836367;29;20053;-75
2023/06/01 11:55:04;;;;;;;7.50;3.40;;;;;;;;;;4835713;29;20864;-76
2023/06/01 11:57:34;;;;;;;9.85;2.90;;;;;;;;;;4835157;29;20057;-76
2023/06/01 12:00:15;;;;;;;4.20;2.63;;;;;;;;;;4835643;29;20053;-74
2023/06/01 12:02:46;;;;;;;6.55;2.90;;;;;;;;;;4848529;29;20053;-74
2023/06/01 12:05:18;;;;;;;9.10;3.97;;;;;;;;;;4835943;29;20884;-75
2023/06/01 12:07:53;;;;;;;8.15;3.20;;;;;;;;;;4835861;29;20506;-74
2023/06/01 12:10:27;;;;;;;4.97;3.08;;;;;;;;;;4835496;29;20057;-74
2023/06/01 12:12:59;;;;;;;6.65;3.70;;;;;;;;;;4835384;29;20058;-74
2023/06/01 12:15:31;;;;;;;4.28;3.13;;;;;;;;;;4835163;29;20050;-78
2023/06/01 12:18:01;;;;;;;9.43;7.65;;;;;;;;;;4834812;29;20050;-76
2023/06/01 12:20:37;;;;;;;6.78;3.30;;;;;;;;;;4835374;29;20054;-76
2023/06/01 12:23:21;;;;;;;5.57;3.45;;;;;;;;;;4835401;29;20062;-77
2023/06/01 12:25:56;;;;;;;4.75;3.60;;;;;;;;;;4835427;29;20407;-74
2023/06/01 12:28:35;;;;;;;5.68;4.30;;;;;;;;;;4835160;29;20057;-74
2023/06/01 12:31:15;;;;;;;5.65;3.97;;;;;;;;;;4834793;29;20065;-75
2023/06/01 12:33:50;;;;;;;9.32;4.38;;;;;;;;;;4834797;29;20050;-79
2023/06/01 12:36:35;;;;;;;7.38;4.00;;;;;;;;;;4848411;29;20053;-75
2023/06/01 12:39:05;;;;;;;7.50;3.50;;;;;;;;;;4834926;29;20049;-76
2023/06/01 12:41:36;;;;;;;3.90;2.95;;;;;;;;;;4835185;29;20054;-74
2023/06/01 12:44:07;;;;;;;9.90;7.32;;;;;;;;;;4834549;29;20045;-78
2023/06/01 12:46:37;;;;;;;8.13;3.15;;;;;;;;;;4835091;29;20054;-75
2023/06/01 12:49:13;;;;;;;8.68;3.10;;;;;;;;;;4835077;29;20422;-75
2023/06/01 12:51:44;;;;;;;9.10;3.10;;;;;;;;;;4834823;29;20049;-74
2023/06/01 12:54:17;;;;;;;7.00;2.88;;;;;;;;;;4834800;29;20059;-74
2023/06/01 12:56:49;;;;;;;3.78;2.70;;;;;;;;;;4834495;29;20058;-75
2023/06/01 12:59:21;;;;;;;6.22;2.80;;;;;;;;;;4835118;29;20490;-74
2023/06/01 13:01:51;;;;;;;3.72;2.33;;;;;;;;;;4835106;29;20491;-75
2023/06/01 13:04:23;;;;;;;5.78;2.40;;;;;;;;;;4834613;29;20042;-74
2023/06/01 13:06:55;;;;;;;4.80;2.60;;;;;;;;;;4834344;29;20046;-75
2023/06/01 13:09:25;;;;;;;5.35;2.30;;;;;;;;;;4834950;29;20046;-75
2023/06/01 13:11:55;;;;;;;3.22;2.28;;;;;;;;;;4848445;29;20058;-75
2023/06/01 13:14:26;;;;;;;5.43;2.83;;;;;;;;;;4834436;29;20061;-74
2023/06/01 13:16:57;;;;;;;3.78;2.58;;;;;;;;;;4834181;29;20054;-74
2023/06/01 13:19:28;;;;;;;8.73;2.65;;;;;;;;;;4834449;29;20383;-75
2023/06/01 13:21:58;;;;;;;8.43;2.55;;;;;;;;;;4834367;29;20064;-74
2023/06/01 13:24:29;;;;;;;3.55;2.42;;;;;;;;;;4834061;29;20050;-74
2023/06/01 13:27:13;;;;;;;7.45;2.40;;;;;;;;;;4834365;29;20120;-75
2023/06/01 13:29:43;;;;;;;7.72;3.20;;;;;;;;;;4834534;29;20081;-76
2023/06/01 13:32:16;;;;;;;3.97;2.55;;;;;;;;;;4835078;29;20495;-74
2023/06/01 13:34:47;;;;;;;10.23;2.58;;;;;;;;;;4834058;29;20050;-74
2023/06/01 13:37:18;;;;;;;4.40;2.50;;;;;;;;;;4834088;29;20064;-75
2023/06/01 13:39:52;;;;;;;9.80;2.47;;;;;;;;;;4834422;29;20058;-75
2023/06/01 13:42:22;;;;;;;2.53;1.65;;;;;;;;;;4834241;29;20515;-74
2023/06/01 13:44:52;;;;;;;3.22;2.10;;;;;;;;;;4834086;29;20069;-75
2023/06/01 13:47:22;;;;;;;5.20;2.28;;;;;;;;;;4834188;29;20046;-75
2023/06/01 13:49:56;;;;;;;3.03;1.63;;;;;;;;;;4834557;29;20057;-75
2023/06/01 13:52:26;;;;;;;3.05;2.05;;;;;;;;;;4834110;29;20054;-76
2023/06/01 13:54:58;;;;;;;3.80;2.00;;;;;;;;;;4835105;29;20078;-75
2023/06/01 13:57:28;;;;;;;4.03;1.80;;;;;;;;;;4837600;29;20700;-74
2023/06/01 13:59:59;;;;;;;3.08;1.90;;;;;;;;;;4837247;29;20061;-74
2023/06/01 14:02:35;;;;;;;4.47;2.00;;;;;;;;;;4839654;29;20554;-74
2023/06/01 14:05:08;;;;;;;8.40;2.70;;;;;;;;;;4851292;29;20054;-74
2023/06/01 14:07:46;;;;;;;3.78;2.38;;;;;;;;;;4838094;29;20064;-75
2023/06/01 14:10:17;;;;;;;3.25;2.33;;;;;;;;;;4837367;29;20057;-75
2023/06/01 14:12:49;;;;;;;5.32;2.40;;;;;;;;;;4851039;29;20053;-75
2023/06/01 14:15:19;;;;;;;5.30;2.60;;;;;;;;;;4837620;29;20045;-76
2023/06/01 14:17:50;;;;;;;4.50;2.30;;;;;;;;;;4837334;29;20850;-78
2023/06/01 14:20:21;;;;;;;5.05;2.60;;;;;;;;;;4837587;29;20042;-76
2023/06/01 14:22:51;;;;;;;11.73;2.88;;;;;;;;;;4837394;29;20057;-77
2023/06/01 14:25:22;;;;;;;7.82;2.90;;;;;;;;;;4851252;29;20056;-77
2023/06/01 14:27:53;;;;;;;5.55;2.63;;;;;;;;;;4837061;29;20058;-77
2023/06/01 14:30:26;;;;;;;5.10;2.92;;;;;;;;;;4836842;29;20521;-77
2023/06/01 14:32:57;;;;;;;4.18;2.90;;;;;;;;;;4837186;29;20068;-75
2023/06/01 14:35:28;;;;;;;7.15;4.40;;;;;;;;;;4836915;29;20422;-75
2023/06/01 14:37:59;;;;;;;4.25;3.08;;;;;;;;;;4836764;29;20054;-76
2023/06/01 14:40:29;;;;;;;4.22;3.10;;;;;;;;;;4851064;29;20058;-76
2023/06/01 14:43:02;;;;;;;10.00;3.60;;;;;;;;;;4837584;29;20061;-75
2023/06/01 14:45:33;;;;;;;6.80;3.00;;;;;;;;;;4836792;29;20053;-75
2023/06/01 14:48:03;;;;;;;4.07;2.90;;;;;;;;;;4850321;29;20068;-76
2023/06/01 14:50:34;;;;;;;5.93;3.30;;;;;;;;;;4836674;29;20049;-74
2023/06/01 14:53:07;;;;;;;10.05;5.82;;;;;;;;;;4836537;29;20065;-75
2023/06/01 14:55:40;;;;;;;6.50;3.75;;;;;;;;;;4836881;29;20061;-79
2023/06/01 14:58:11;;;;;;;9.00;3.88;;;;;;;;;;4836943;29;20053;-74
2023/06/01 15:00:41;;;;;;;7.00;3.72;;;;;;;;;;4836964;29;20050;-75
2023/06/01 15:03:12;;;;;;;8.65;4.50;;;;;;;;;;4836527;29;20045;-78
2023/06/01 15:05:44;;;;;;;14.88;5.43;;;;;;;;;;4835619;29;20796;-76
2023/06/01 15:08:14;;;;;;;7.55;4.30;;;;;;;;;;4836215;29;20534;-76
2023/06/01 15:10:45;;;;;;;11.98;4.30;;;;;;;;;;4850231;29;20518;-77
2023/06/01 15:13:18;;;;;;;11.10;4.45;;;;;;;;;;4836166;29;20054;-76
2023/06/01 15:15:48;;;;;;;7.30;4.20;;;;;;;;;;4836219;29;20057;-75